Time;durP1;ratioP1;P1;durP2;ratioP2;P2;SDS_P1;SDS_P2;PMS_P1;PMS_P2;Temp;Humidity;BMP_temperature;BMP_pressure;BME280_temperature;BME280_humidity;BME280_pressure;Samples;Min_cycle;Max_cycle;Signal;HPM_P1;HPM_P2
2022/09/11 00:00:04;;;;;;;0.95;0.95;;;;;;;;;;1881548;75;26270;-49
2022/09/11 00:02:31;;;;;;;0.95;0.95;;;;;;;;;;1882960;75;26740;-46
2022/09/11 00:04:59;;;;;;;0.90;0.90;;;;;;;;;;1895063;75;26788;-47
2022/09/11 00:07:26;;;;;;;0.90;0.90;;;;;;;;;;1895310;75;26286;-50
2022/09/11 00:09:54;;;;;;;0.80;0.80;;;;;;;;;;1903480;75;26774;-52
2022/09/11 00:12:21;;;;;;;0.80;0.80;;;;;;;;;;1899710;75;26340;-47
2022/09/11 00:14:50;;;;;;;0.70;0.70;;;;;;;;;;1896306;75;26255;-46
2022/09/11 00:17:17;;;;;;;0.80;0.80;;;;;;;;;;1872224;75;26272;-45
2022/09/11 00:19:44;;;;;;;0.70;0.70;;;;;;;;;;1888202;75;26254;-50
2022/09/11 00:22:11;;;;;;;0.80;0.80;;;;;;;;;;1878940;75;26350;-45
2022/09/11 00:24:40;;;;;;;0.80;0.80;;;;;;;;;;1882702;75;26289;-48
2022/09/11 00:27:07;;;;;;;0.80;0.80;;;;;;;;;;1880601;75;26274;-47
2022/09/11 00:29:34;;;;;;;0.82;0.82;;;;;;;;;;1875908;75;26238;-47
2022/09/11 00:32:02;;;;;;;0.70;0.70;;;;;;;;;;1885223;75;26180;-46
2022/09/11 00:34:29;;;;;;;0.80;0.80;;;;;;;;;;1883237;75;26310;-48
2022/09/11 00:36:56;;;;;;;0.70;0.70;;;;;;;;;;1876974;75;26219;-51
2022/09/11 00:39:24;;;;;;;0.60;0.60;;;;;;;;;;1901955;75;26963;-47
2022/09/11 00:41:51;;;;;;;0.80;0.80;;;;;;;;;;1875341;75;26324;-48
2022/09/11 00:44:20;;;;;;;0.78;0.78;;;;;;;;;;1866336;75;26300;-44
2022/09/11 00:46:48;;;;;;;0.75;0.75;;;;;;;;;;1891268;75;26369;-47
2022/09/11 00:49:20;;;;;;;0.72;0.72;;;;;;;;;;1877782;74;27361;-55
2022/09/11 00:51:49;;;;;;;0.88;0.88;;;;;;;;;;1873600;75;26243;-43
2022/09/11 00:54:18;;;;;;;0.80;0.80;;;;;;;;;;1881041;75;26311;-44
2022/09/11 00:56:46;;;;;;;0.90;0.90;;;;;;;;;;1876035;75;26255;-48
2022/09/11 00:59:14;;;;;;;0.90;0.90;;;;;;;;;;1876155;75;26290;-47
2022/09/11 01:01:41;;;;;;;1.00;1.00;;;;;;;;;;1871533;75;26935;-48
2022/09/11 01:04:08;;;;;;;0.90;0.90;;;;;;;;;;1874782;75;26709;-45
2022/09/11 01:06:36;;;;;;;0.90;0.90;;;;;;;;;;1907843;75;26321;-49
2022/09/11 01:09:03;;;;;;;0.70;0.70;;;;;;;;;;1907294;75;26263;-50
2022/09/11 01:11:35;;;;;;;0.80;0.80;;;;;;;;;;1905444;75;26251;-52
2022/09/11 01:14:19;;;;;;;0.68;0.68;;;;;;;;;;1886414;75;26714;-46
2022/09/11 01:17:07;;;;;;;0.80;0.80;;;;;;;;;;1890537;75;26325;-45
2022/09/11 01:19:47;;;;;;;0.80;0.80;;;;;;;;;;1892195;75;26335;-48
2022/09/11 01:22:30;;;;;;;0.80;0.80;;;;;;;;;;1895523;75;27354;-44
2022/09/11 01:25:11;;;;;;;0.90;0.90;;;;;;;;;;1874411;75;26627;-49
2022/09/11 01:27:40;;;;;;;0.90;0.90;;;;;;;;;;1906919;75;27388;-49
2022/09/11 01:30:08;;;;;;;0.80;0.80;;;;;;;;;;1909298;75;26243;-45
2022/09/11 01:32:40;;;;;;;0.75;0.75;;;;;;;;;;1887233;75;26194;-44
2022/09/11 01:35:11;;;;;;;0.78;0.78;;;;;;;;;;1903713;75;26340;-47
2022/09/11 01:37:40;;;;;;;0.60;0.60;;;;;;;;;;1895200;75;26200;-49
2022/09/11 01:40:09;;;;;;;0.70;0.70;;;;;;;;;;1885966;75;26816;-48
2022/09/11 01:42:38;;;;;;;0.75;0.75;;;;;;;;;;1898679;75;26274;-46
2022/09/11 01:45:06;;;;;;;0.70;0.70;;;;;;;;;;1893029;74;26290;-51
2022/09/11 01:47:34;;;;;;;0.80;0.80;;;;;;;;;;1901419;75;27373;-46
2022/09/11 01:50:06;;;;;;;0.80;0.80;;;;;;;;;;1898582;74;26324;-46
2022/09/11 01:52:35;;;;;;;0.80;0.80;;;;;;;;;;1899040;75;26277;-47
2022/09/11 01:55:04;;;;;;;0.70;0.70;;;;;;;;;;1899603;75;26738;-49
2022/09/11 01:57:33;;;;;;;0.70;0.70;;;;;;;;;;1902092;75;26891;-49
2022/09/11 02:00:02;;;;;;;0.90;0.90;;;;;;;;;;1898859;75;26639;-53
2022/09/11 02:02:30;;;;;;;0.70;0.70;;;;;;;;;;1898331;75;26780;-51
2022/09/11 02:04:59;;;;;;;0.70;0.70;;;;;;;;;;1903643;75;26694;-45
2022/09/11 02:07:38;;;;;;;0.90;0.90;;;;;;;;;;1895352;75;26703;-49
2022/09/11 02:10:10;;;;;;;0.78;0.78;;;;;;;;;;1895884;75;26340;-49
2022/09/11 02:12:39;;;;;;;0.78;0.78;;;;;;;;;;1904488;75;26254;-47
2022/09/11 02:15:08;;;;;;;0.95;0.95;;;;;;;;;;1895269;75;26266;-49
2022/09/11 02:17:52;;;;;;;0.80;0.80;;;;;;;;;;1900823;75;26250;-47
2022/09/11 02:20:19;;;;;;;0.70;0.70;;;;;;;;;;1889849;75;26802;-48
2022/09/11 02:22:47;;;;;;;0.80;0.80;;;;;;;;;;1902524;75;26328;-47
2022/09/11 02:25:15;;;;;;;0.70;0.70;;;;;;;;;;1897457;75;26278;-48
2022/09/11 02:27:42;;;;;;;0.80;0.80;;;;;;;;;;1899846;75;26719;-52
2022/09/11 02:30:11;;;;;;;0.70;0.70;;;;;;;;;;1900201;75;26313;-45
2022/09/11 02:32:39;;;;;;;0.80;0.80;;;;;;;;;;1899207;75;26224;-47
2022/09/11 02:35:07;;;;;;;0.90;0.90;;;;;;;;;;1882311;75;26726;-46
2022/09/11 02:37:54;;;;;;;0.80;0.80;;;;;;;;;;1907665;75;26239;-47
2022/09/11 02:40:40;;;;;;;0.70;0.70;;;;;;;;;;1895851;75;26329;-53
2022/09/11 02:43:09;;;;;;;0.80;0.80;;;;;;;;;;1890515;75;27356;-45
2022/09/11 02:45:38;;;;;;;0.65;0.65;;;;;;;;;;1893615;75;26247;-48
2022/09/11 02:48:25;;;;;;;0.88;0.88;;;;;;;;;;1894268;75;26275;-50
2022/09/11 02:50:54;;;;;;;0.70;0.70;;;;;;;;;;1903244;75;26337;-46
2022/09/11 02:53:41;;;;;;;0.70;0.70;;;;;;;;;;1902140;75;26314;-46
2022/09/11 02:56:11;;;;;;;0.70;0.70;;;;;;;;;;1892227;75;26250;-48
2022/09/11 02:58:56;;;;;;;0.70;0.70;;;;;;;;;;1902112;75;27243;-52
2022/09/11 03:01:23;;;;;;;0.72;0.72;;;;;;;;;;1907511;75;26312;-49
2022/09/11 03:03:50;;;;;;;0.93;0.93;;;;;;;;;;1908328;75;26718;-52
2022/09/11 03:06:19;;;;;;;0.80;0.80;;;;;;;;;;1895339;75;26253;-46
2022/09/11 03:08:47;;;;;;;0.82;0.82;;;;;;;;;;1904287;75;26286;-50
2022/09/11 03:11:16;;;;;;;0.72;0.72;;;;;;;;;;1901262;75;26204;-46
2022/09/11 03:13:43;;;;;;;0.80;0.80;;;;;;;;;;1897376;75;26239;-51
2022/09/11 03:16:11;;;;;;;1.55;0.70;;;;;;;;;;1902085;75;26302;-46
2022/09/11 03:18:39;;;;;;;0.70;0.70;;;;;;;;;;1907635;75;26223;-47
2022/09/11 03:21:06;;;;;;;0.70;0.70;;;;;;;;;;1889845;75;26250;-47
2022/09/11 03:23:33;;;;;;;0.70;0.70;;;;;;;;;;1899526;75;26328;-44
2022/09/11 03:26:01;;;;;;;0.88;0.88;;;;;;;;;;1907046;75;26300;-49
2022/09/11 03:28:29;;;;;;;0.62;0.62;;;;;;;;;;1902412;75;26223;-48
2022/09/11 03:30:57;;;;;;;0.80;0.80;;;;;;;;;;1890774;75;26335;-49
2022/09/11 03:33:24;;;;;;;0.75;0.75;;;;;;;;;;1905672;75;26230;-46
2022/09/11 03:35:51;;;;;;;0.90;0.90;;;;;;;;;;1906354;75;26254;-51
2022/09/11 03:38:19;;;;;;;0.80;0.80;;;;;;;;;;1909669;75;26305;-45
2022/09/11 03:40:46;;;;;;;0.80;0.80;;;;;;;;;;1899524;75;27575;-47
2022/09/11 03:43:15;;;;;;;0.80;0.80;;;;;;;;;;1901274;75;26242;-47
2022/09/11 03:45:43;;;;;;;0.80;0.80;;;;;;;;;;1887660;75;26990;-54
2022/09/11 03:48:10;;;;;;;0.70;0.70;;;;;;;;;;1893790;75;26349;-45
2022/09/11 03:50:38;;;;;;;0.80;0.80;;;;;;;;;;1877954;76;26248;-47
2022/09/11 03:53:05;;;;;;;0.60;0.60;;;;;;;;;;1882450;76;26573;-51
2022/09/11 03:55:32;;;;;;;0.70;0.70;;;;;;;;;;1884157;76;26259;-50
2022/09/11 03:57:59;;;;;;;0.80;0.80;;;;;;;;;;1880315;76;26224;-51
2022/09/11 04:00:27;;;;;;;0.70;0.70;;;;;;;;;;1883998;76;26309;-53
2022/09/11 04:02:54;;;;;;;0.70;0.70;;;;;;;;;;1883950;76;26660;-44
2022/09/11 04:05:25;;;;;;;0.80;0.80;;;;;;;;;;1878705;76;26220;-52
2022/09/11 04:07:53;;;;;;;0.68;0.68;;;;;;;;;;1873581;76;26252;-47
2022/09/11 04:10:21;;;;;;;0.70;0.70;;;;;;;;;;1881605;76;26313;-53
2022/09/11 04:12:48;;;;;;;0.70;0.70;;;;;;;;;;1884022;76;26308;-48
2022/09/11 04:15:15;;;;;;;0.70;0.70;;;;;;;;;;1884105;76;26361;-46
2022/09/11 04:17:43;;;;;;;0.70;0.70;;;;;;;;;;1882659;75;26300;-52
2022/09/11 04:20:10;;;;;;;0.70;0.70;;;;;;;;;;1878233;76;26243;-48
2022/09/11 04:22:38;;;;;;;0.70;0.70;;;;;;;;;;1878663;76;26666;-49
2022/09/11 04:25:06;;;;;;;0.80;0.80;;;;;;;;;;1881000;76;26315;-49
2022/09/11 04:27:33;;;;;;;0.80;0.80;;;;;;;;;;1882080;76;26640;-48
2022/09/11 04:30:00;;;;;;;0.80;0.80;;;;;;;;;;1882461;76;26248;-47
2022/09/11 04:32:28;;;;;;;0.70;0.70;;;;;;;;;;1883068;76;26333;-46
2022/09/11 04:34:55;;;;;;;0.80;0.80;;;;;;;;;;1882958;76;26741;-47
2022/09/11 04:37:22;;;;;;;0.80;0.80;;;;;;;;;;1877420;76;26695;-49
2022/09/11 04:39:49;;;;;;;0.70;0.70;;;;;;;;;;1883261;76;26243;-45
2022/09/11 04:42:17;;;;;;;0.70;0.70;;;;;;;;;;1872415;76;26203;-50
2022/09/11 04:44:45;;;;;;;0.80;0.80;;;;;;;;;;1878699;76;26313;-49
2022/09/11 04:47:13;;;;;;;0.70;0.70;;;;;;;;;;1873448;76;26347;-48
2022/09/11 04:49:40;;;;;;;0.80;0.80;;;;;;;;;;1883883;76;26276;-45
2022/09/11 04:52:07;;;;;;;0.80;0.80;;;;;;;;;;1880901;76;26398;-54
2022/09/11 04:54:35;;;;;;;1.35;0.60;;;;;;;;;;1871224;76;26245;-48
2022/09/11 04:57:03;;;;;;;0.70;0.70;;;;;;;;;;1880724;76;26731;-49
2022/09/11 04:59:30;;;;;;;0.80;0.80;;;;;;;;;;1878324;76;26286;-52
2022/09/11 05:01:57;;;;;;;0.80;0.80;;;;;;;;;;1882435;76;26317;-50
2022/09/11 05:04:25;;;;;;;0.70;0.70;;;;;;;;;;1883363;76;26280;-50
2022/09/11 05:06:52;;;;;;;0.80;0.80;;;;;;;;;;1881005;76;26228;-47
2022/09/11 05:09:19;;;;;;;0.70;0.70;;;;;;;;;;1879219;76;26259;-45
2022/09/11 05:11:46;;;;;;;0.80;0.80;;;;;;;;;;1879753;76;26417;-49
2022/09/11 05:14:14;;;;;;;0.62;0.62;;;;;;;;;;1876870;76;26236;-51
2022/09/11 05:16:42;;;;;;;0.65;0.65;;;;;;;;;;1881458;75;26255;-49
2022/09/11 05:19:10;;;;;;;0.70;0.70;;;;;;;;;;1878858;75;26376;-48
2022/09/11 05:21:37;;;;;;;0.70;0.70;;;;;;;;;;1884467;76;26265;-49
2022/09/11 05:24:05;;;;;;;0.72;0.72;;;;;;;;;;1879053;76;26299;-53
2022/09/11 05:26:34;;;;;;;0.80;0.80;;;;;;;;;;1875477;76;26743;-50
2022/09/11 05:29:09;;;;;;;0.80;0.80;;;;;;;;;;1880357;76;26186;-44
2022/09/11 05:31:36;;;;;;;0.90;0.90;;;;;;;;;;1881607;76;26328;-48
2022/09/11 05:34:04;;;;;;;0.72;0.72;;;;;;;;;;1878430;76;26279;-48
2022/09/11 05:36:32;;;;;;;0.90;0.90;;;;;;;;;;1870123;76;26425;-49
2022/09/11 05:38:59;;;;;;;0.70;0.70;;;;;;;;;;1880803;76;26338;-49
2022/09/11 05:41:27;;;;;;;0.82;0.82;;;;;;;;;;1872025;75;26667;-47
2022/09/11 05:43:54;;;;;;;0.80;0.80;;;;;;;;;;1879758;76;26242;-47
2022/09/11 05:46:21;;;;;;;1.47;0.80;;;;;;;;;;1867713;75;26327;-54
2022/09/11 05:48:49;;;;;;;0.60;0.60;;;;;;;;;;1878555;75;26368;-48
2022/09/11 05:51:20;;;;;;;0.60;0.60;;;;;;;;;;1888610;75;26673;-48
2022/09/11 05:53:49;;;;;;;0.70;0.70;;;;;;;;;;1896408;74;26254;-53
2022/09/11 05:56:18;;;;;;;0.70;0.70;;;;;;;;;;1900168;75;26262;-49
2022/09/11 05:58:45;;;;;;;0.70;0.70;;;;;;;;;;1897365;75;25932;-49
2022/09/11 06:01:17;;;;;;;0.80;0.80;;;;;;;;;;1900992;75;26687;-52
2022/09/11 06:03:48;;;;;;;0.80;0.80;;;;;;;;;;1898265;75;26302;-47
2022/09/11 06:06:13;;;;;;;0.80;0.80;;;;;;;;;;1894916;75;26323;-48
2022/09/11 06:08:42;;;;;;;0.80;0.80;;;;;;;;;;1900362;75;26247;-55
2022/09/11 06:11:11;;;;;;;1.40;0.80;;;;;;;;;;1906319;75;26244;-45
2022/09/11 06:13:39;;;;;;;0.78;0.78;;;;;;;;;;1902764;75;26396;-56
2022/09/11 06:16:10;;;;;;;1.42;0.80;;;;;;;;;;1903074;75;26329;-51
2022/09/11 06:18:38;;;;;;;0.90;0.90;;;;;;;;;;1888015;75;26251;-50
2022/09/11 06:21:06;;;;;;;9.50;1.10;;;;;;;;;;1892472;75;26251;-45
2022/09/11 06:23:35;;;;;;;7.47;1.12;;;;;;;;;;1902885;75;26203;-45
2022/09/11 06:26:03;;;;;;;4.35;1.00;;;;;;;;;;1906985;75;26270;-42
2022/09/11 06:28:31;;;;;;;4.47;1.20;;;;;;;;;;1903597;75;26308;-45
2022/09/11 06:30:58;;;;;;;3.95;1.37;;;;;;;;;;1894802;75;26311;-44
2022/09/11 06:33:25;;;;;;;4.80;0.95;;;;;;;;;;1898406;75;26863;-44
2022/09/11 06:36:03;;;;;;;7.58;1.17;;;;;;;;;;1883196;75;27449;-48
2022/09/11 06:38:33;;;;;;;6.65;1.10;;;;;;;;;;1882856;74;26755;-43
2022/09/11 06:41:04;;;;;;;1.45;0.80;;;;;;;;;;1897241;75;26195;-42
2022/09/11 06:43:31;;;;;;;1.20;0.90;;;;;;;;;;1888525;75;26243;-43
2022/09/11 06:46:10;;;;;;;5.87;1.05;;;;;;;;;;1901581;75;26748;-46
2022/09/11 06:48:44;;;;;;;3.10;1.15;;;;;;;;;;1895584;75;26308;-47
2022/09/11 06:51:13;;;;;;;2.08;0.90;;;;;;;;;;1894275;75;26286;-47
2022/09/11 06:53:41;;;;;;;6.17;1.10;;;;;;;;;;1885341;74;26280;-44
2022/09/11 06:56:11;;;;;;;4.20;1.17;;;;;;;;;;1898000;75;26809;-47
2022/09/11 06:58:39;;;;;;;4.53;1.00;;;;;;;;;;1904714;75;26274;-42
2022/09/11 07:01:08;;;;;;;6.35;1.00;;;;;;;;;;1893389;75;26266;-44
2022/09/11 07:03:36;;;;;;;1.12;0.95;;;;;;;;;;1876325;75;26240;-47
2022/09/11 07:06:05;;;;;;;1.95;0.90;;;;;;;;;;1880857;75;26332;-45
2022/09/11 07:08:32;;;;;;;3.75;1.17;;;;;;;;;;1878464;75;26837;-43
2022/09/11 07:11:07;;;;;;;3.08;0.90;;;;;;;;;;1902382;75;26772;-45
2022/09/11 07:13:33;;;;;;;2.37;1.00;;;;;;;;;;1905707;75;27421;-46
2022/09/11 07:16:08;;;;;;;1.60;0.90;;;;;;;;;;1907338;75;26207;-44
2022/09/11 07:18:37;;;;;;;0.80;0.80;;;;;;;;;;1891572;75;26310;-48
2022/09/11 07:21:05;;;;;;;1.32;0.82;;;;;;;;;;1903360;75;26300;-45
2022/09/11 07:23:33;;;;;;;2.37;0.90;;;;;;;;;;1909535;75;26246;-45
2022/09/11 07:26:06;;;;;;;2.05;0.70;;;;;;;;;;1908834;75;26344;-45
2022/09/11 07:28:34;;;;;;;2.83;1.05;;;;;;;;;;1890658;75;26273;-43
2022/09/11 07:31:11;;;;;;;1.60;0.80;;;;;;;;;;1899292;75;26239;-45
2022/09/11 07:33:39;;;;;;;1.72;0.80;;;;;;;;;;1888794;75;26345;-48
2022/09/11 07:36:10;;;;;;;0.82;0.80;;;;;;;;;;1899972;75;26312;-46
2022/09/11 07:38:38;;;;;;;0.90;0.80;;;;;;;;;;1885525;75;25400;-43
2022/09/11 07:41:07;;;;;;;1.95;0.80;;;;;;;;;;1896595;75;26355;-47
2022/09/11 07:43:35;;;;;;;0.88;0.88;;;;;;;;;;1897548;75;26289;-44
2022/09/11 07:46:03;;;;;;;2.85;0.90;;;;;;;;;;1892963;75;26242;-45
2022/09/11 07:48:31;;;;;;;0.80;0.80;;;;;;;;;;1898354;75;26867;-46
2022/09/11 07:51:04;;;;;;;2.58;0.98;;;;;;;;;;1892029;75;26584;-44
2022/09/11 07:53:30;;;;;;;3.55;1.12;;;;;;;;;;1878136;74;26962;-47
2022/09/11 07:55:59;;;;;;;0.90;0.90;;;;;;;;;;1900491;75;26768;-46
2022/09/11 07:58:26;;;;;;;1.80;0.90;;;;;;;;;;1880425;75;26259;-49
2022/09/11 08:00:57;;;;;;;1.02;1.00;;;;;;;;;;1887904;75;26296;-45
2022/09/11 08:03:25;;;;;;;2.95;1.00;;;;;;;;;;1891273;75;26309;-48
2022/09/11 08:05:53;;;;;;;1.47;1.20;;;;;;;;;;1896966;75;26296;-42
2022/09/11 08:08:21;;;;;;;1.45;1.07;;;;;;;;;;1890414;74;26788;-48
2022/09/11 08:10:48;;;;;;;2.62;1.15;;;;;;;;;;1904283;75;26955;-44
2022/09/11 08:13:16;;;;;;;1.42;0.90;;;;;;;;;;1909372;75;26788;-44
2022/09/11 08:15:47;;;;;;;1.10;1.07;;;;;;;;;;1903925;75;26324;-45
2022/09/11 08:18:15;;;;;;;1.20;0.95;;;;;;;;;;1883141;75;27779;-42
2022/09/11 08:20:43;;;;;;;2.27;0.90;;;;;;;;;;1897829;75;26709;-45
2022/09/11 08:23:11;;;;;;;1.70;0.93;;;;;;;;;;1908470;75;26286;-51
2022/09/11 08:25:38;;;;;;;2.20;1.30;;;;;;;;;;1909644;75;26228;-43
2022/09/11 08:28:05;;;;;;;1.75;1.00;;;;;;;;;;1895736;75;26259;-45
2022/09/11 08:30:37;;;;;;;1.00;1.00;;;;;;;;;;1900205;75;26820;-46
2022/09/11 08:33:03;;;;;;;2.20;0.95;;;;;;;;;;1893297;75;26333;-42
2022/09/11 08:35:31;;;;;;;0.90;0.90;;;;;;;;;;1905067;75;26283;-47
2022/09/11 08:37:59;;;;;;;0.98;0.98;;;;;;;;;;1900639;75;26321;-42
2022/09/11 08:40:27;;;;;;;1.00;1.00;;;;;;;;;;1887469;75;26348;-48
2022/09/11 08:42:57;;;;;;;1.00;1.00;;;;;;;;;;1902149;75;26309;-44
2022/09/11 08:45:26;;;;;;;2.55;0.98;;;;;;;;;;1895906;75;26301;-47
2022/09/11 08:47:55;;;;;;;2.05;0.80;;;;;;;;;;1890595;75;26695;-47
2022/09/11 08:50:24;;;;;;;0.80;0.80;;;;;;;;;;1885401;75;26332;-47
2022/09/11 08:52:53;;;;;;;1.67;1.00;;;;;;;;;;1857308;74;26384;-46
2022/09/11 08:55:23;;;;;;;1.12;0.80;;;;;;;;;;1867001;75;26821;-50
2022/09/11 08:57:54;;;;;;;0.93;0.90;;;;;;;;;;1893652;75;26278;-44
2022/09/11 09:00:23;;;;;;;0.90;0.90;;;;;;;;;;1879090;75;26250;-43
2022/09/11 09:02:55;;;;;;;0.88;0.88;;;;;;;;;;1883867;75;26255;-47
2022/09/11 09:05:25;;;;;;;1.00;1.00;;;;;;;;;;1879205;75;26251;-44
2022/09/11 09:07:56;;;;;;;1.95;1.00;;;;;;;;;;1886145;75;26769;-43
2022/09/11 09:10:28;;;;;;;0.95;0.95;;;;;;;;;;1879569;75;26239;-48
2022/09/11 09:13:01;;;;;;;1.10;1.00;;;;;;;;;;1874537;75;26253;-44
2022/09/11 09:15:34;;;;;;;0.90;0.90;;;;;;;;;;1891073;75;26272;-44
2022/09/11 09:18:11;;;;;;;4.90;1.10;;;;;;;;;;1888205;75;26283;-44
2022/09/11 09:20:41;;;;;;;3.75;1.00;;;;;;;;;;1885586;75;26243;-42
2022/09/11 09:23:19;;;;;;;4.20;1.00;;;;;;;;;;1898872;75;26703;-46
2022/09/11 09:25:47;;;;;;;1.45;1.00;;;;;;;;;;1894682;75;26418;-44
2022/09/11 09:28:16;;;;;;;2.20;0.90;;;;;;;;;;1897859;75;26325;-44
2022/09/11 09:30:45;;;;;;;4.42;1.00;;;;;;;;;;1900345;75;26549;-43
2022/09/11 09:33:33;;;;;;;1.07;0.95;;;;;;;;;;1900110;75;26259;-51
2022/09/11 09:36:11;;;;;;;3.95;0.90;;;;;;;;;;1872432;75;26214;-45
2022/09/11 09:38:38;;;;;;;3.40;1.12;;;;;;;;;;1873244;75;26239;-45
2022/09/11 09:41:07;;;;;;;1.15;1.10;;;;;;;;;;1880328;75;26313;-45
2022/09/11 09:43:53;;;;;;;3.08;1.00;;;;;;;;;;1895953;75;27460;-41
2022/09/11 09:46:22;;;;;;;2.25;0.80;;;;;;;;;;1879684;75;26214;-46
2022/09/11 09:48:49;;;;;;;1.65;0.62;;;;;;;;;;1888960;75;27487;-45
2022/09/11 09:51:17;;;;;;;3.98;0.80;;;;;;;;;;1899650;75;26357;-46
2022/09/11 09:53:45;;;;;;;1.35;0.90;;;;;;;;;;1891033;74;26250;-43
2022/09/11 09:56:15;;;;;;;2.80;0.90;;;;;;;;;;1885962;75;26251;-43
2022/09/11 09:58:45;;;;;;;0.98;0.88;;;;;;;;;;1890900;75;26336;-41
2022/09/11 10:01:23;;;;;;;1.00;0.90;;;;;;;;;;1879484;75;26347;-43
2022/09/11 10:03:51;;;;;;;0.80;0.80;;;;;;;;;;1852026;75;26329;-46
2022/09/11 10:06:20;;;;;;;1.10;0.78;;;;;;;;;;1888089;75;26242;-47
2022/09/11 10:08:48;;;;;;;1.32;0.80;;;;;;;;;;1898612;75;26254;-42
2022/09/11 10:11:17;;;;;;;0.82;0.82;;;;;;;;;;1898054;75;27369;-46
2022/09/11 10:13:46;;;;;;;0.80;0.80;;;;;;;;;;1897134;75;26703;-40
2022/09/11 10:16:24;;;;;;;0.70;0.70;;;;;;;;;;1894838;75;26675;-43
2022/09/11 10:18:53;;;;;;;0.88;0.82;;;;;;;;;;1896711;75;26844;-43
2022/09/11 10:21:36;;;;;;;0.90;0.90;;;;;;;;;;1877510;75;26282;-41
2022/09/11 10:24:00;;;;;;;1.20;1.00;;;;;;;;;;1897372;75;26328;-44
2022/09/11 10:26:33;;;;;;;1.50;1.00;;;;;;;;;;1897251;75;26293;-43
2022/09/11 10:29:14;;;;;;;1.98;1.17;;;;;;;;;;1900934;75;26293;-43
2022/09/11 10:31:42;;;;;;;1.10;1.07;;;;;;;;;;1894141;75;26249;-41
2022/09/11 10:34:11;;;;;;;1.20;1.10;;;;;;;;;;1892548;75;26363;-44
2022/09/11 10:36:40;;;;;;;1.02;1.02;;;;;;;;;;1889351;75;26313;-43
2022/09/11 10:39:09;;;;;;;1.40;1.00;;;;;;;;;;1900464;75;26251;-40
2022/09/11 10:41:36;;;;;;;1.30;1.30;;;;;;;;;;1892403;75;26266;-44
2022/09/11 10:44:06;;;;;;;1.12;1.12;;;;;;;;;;1898870;75;26845;-42
2022/09/11 10:46:40;;;;;;;0.98;0.98;;;;;;;;;;1888021;75;26313;-43
2022/09/11 10:49:09;;;;;;;2.45;1.10;;;;;;;;;;1893592;75;26308;-42
2022/09/11 10:51:40;;;;;;;1.55;1.30;;;;;;;;;;1884700;75;26354;-43
2022/09/11 10:54:15;;;;;;;1.02;1.02;;;;;;;;;;1899149;75;26332;-43
2022/09/11 10:56:47;;;;;;;1.00;1.00;;;;;;;;;;1878403;75;26267;-43
2022/09/11 10:59:16;;;;;;;1.42;1.30;;;;;;;;;;1881067;75;26711;-42
2022/09/11 11:01:43;;;;;;;1.25;1.17;;;;;;;;;;1884555;73;26730;-42
2022/09/11 11:04:11;;;;;;;1.75;1.32;;;;;;;;;;1893129;73;26228;-43
2022/09/11 11:06:41;;;;;;;1.30;1.30;;;;;;;;;;1874346;75;26687;-41
2022/09/11 11:09:09;;;;;;;1.00;1.00;;;;;;;;;;1871123;75;26364;-42
2022/09/11 11:11:41;;;;;;;1.10;1.10;;;;;;;;;;1901549;75;26998;-41
2022/09/11 11:14:20;;;;;;;1.20;1.20;;;;;;;;;;1899112;75;26282;-42
2022/09/11 11:16:52;;;;;;;1.45;1.00;;;;;;;;;;1887502;75;26376;-44
2022/09/11 11:19:30;;;;;;;1.10;1.10;;;;;;;;;;1894419;75;26730;-43
2022/09/11 11:22:05;;;;;;;1.20;1.20;;;;;;;;;;1887614;75;26309;-46
2022/09/11 11:24:34;;;;;;;1.30;1.30;;;;;;;;;;1910951;73;26274;-43
2022/09/11 11:27:03;;;;;;;1.65;1.20;;;;;;;;;;1873095;75;26262;-41
2022/09/11 11:29:32;;;;;;;1.27;1.27;;;;;;;;;;1879953;75;26577;-48
2022/09/11 11:32:19;;;;;;;3.15;1.22;;;;;;;;;;1881340;75;26326;-41
2022/09/11 11:35:00;;;;;;;1.35;1.20;;;;;;;;;;1883954;75;26242;-41
2022/09/11 11:37:24;;;;;;;1.00;1.00;;;;;;;;;;1887006;75;26576;-45
2022/09/11 11:39:53;;;;;;;1.10;1.10;;;;;;;;;;1883773;75;26227;-45
2022/09/11 11:42:22;;;;;;;1.22;1.10;;;;;;;;;;1894006;75;26305;-42
2022/09/11 11:44:51;;;;;;;1.30;1.30;;;;;;;;;;1892770;75;26235;-46
2022/09/11 11:47:19;;;;;;;1.52;1.10;;;;;;;;;;1885985;74;26255;-45
2022/09/11 11:49:54;;;;;;;1.10;1.10;;;;;;;;;;1890702;75;26232;-46
2022/09/11 11:52:36;;;;;;;1.00;1.00;;;;;;;;;;1883024;75;26327;-41
2022/09/11 11:55:15;;;;;;;1.17;1.10;;;;;;;;;;1872822;73;26308;-43
2022/09/11 11:57:44;;;;;;;1.00;1.00;;;;;;;;;;1861989;75;27655;-47
2022/09/11 12:00:13;;;;;;;1.22;1.17;;;;;;;;;;1871950;76;26291;-42
2022/09/11 12:02:44;;;;;;;0.90;0.90;;;;;;;;;;1871621;76;26790;-42
2022/09/11 12:05:25;;;;;;;0.90;0.90;;;;;;;;;;1856218;76;26349;-46
2022/09/11 12:07:53;;;;;;;1.17;1.12;;;;;;;;;;1879199;76;26248;-43
2022/09/11 12:10:28;;;;;;;2.00;1.10;;;;;;;;;;1874534;76;26769;-40
2022/09/11 12:12:57;;;;;;;1.32;1.15;;;;;;;;;;1873178;76;26283;-46
2022/09/11 12:15:29;;;;;;;1.37;1.00;;;;;;;;;;1873758;76;26252;-46
2022/09/11 12:18:02;;;;;;;1.30;1.20;;;;;;;;;;1879670;75;26335;-46
2022/09/11 12:20:39;;;;;;;1.60;1.20;;;;;;;;;;1871156;76;26360;-45
2022/09/11 12:23:14;;;;;;;2.30;1.10;;;;;;;;;;1868581;76;26269;-40
2022/09/11 12:25:49;;;;;;;3.35;0.90;;;;;;;;;;1845383;76;26615;-42
2022/09/11 12:28:25;;;;;;;1.10;1.10;;;;;;;;;;1883159;76;26690;-42
2022/09/11 12:30:57;;;;;;;1.00;1.00;;;;;;;;;;1877070;76;26820;-45
2022/09/11 12:33:49;;;;;;;1.00;1.00;;;;;;;;;;1876359;76;26231;-43
2022/09/11 12:36:17;;;;;;;1.90;1.10;;;;;;;;;;1871623;76;26332;-44
2022/09/11 12:38:46;;;;;;;1.57;1.32;;;;;;;;;;1876775;76;26293;-42
2022/09/11 12:41:16;;;;;;;1.00;1.00;;;;;;;;;;1876165;76;26247;-49
2022/09/11 12:43:45;;;;;;;1.72;1.30;;;;;;;;;;1873371;76;26270;-43
2022/09/11 12:46:14;;;;;;;1.00;1.00;;;;;;;;;;1874072;75;26367;-45
2022/09/11 12:48:42;;;;;;;1.75;1.07;;;;;;;;;;1857675;76;26262;-43
2022/09/11 12:51:17;;;;;;;0.90;0.90;;;;;;;;;;1873194;75;26375;-44
2022/09/11 12:53:45;;;;;;;1.65;1.05;;;;;;;;;;1876037;76;26238;-47
2022/09/11 12:56:18;;;;;;;1.10;1.10;;;;;;;;;;1859790;76;26761;-46
2022/09/11 12:58:49;;;;;;;1.30;1.20;;;;;;;;;;1840676;76;26914;-42
2022/09/11 13:01:18;;;;;;;1.10;1.10;;;;;;;;;;1840026;75;26277;-43
2022/09/11 13:03:47;;;;;;;1.77;1.12;;;;;;;;;;1859060;76;26277;-45
2022/09/11 13:06:15;;;;;;;1.12;1.00;;;;;;;;;;1854344;75;26822;-42
2022/09/11 13:08:47;;;;;;;1.10;1.10;;;;;;;;;;1846567;75;26253;-43
2022/09/11 13:11:33;;;;;;;1.02;1.02;;;;;;;;;;1852722;75;26328;-41
2022/09/11 13:14:00;;;;;;;1.00;1.00;;;;;;;;;;1859119;75;26269;-44
2022/09/11 13:16:36;;;;;;;0.88;0.88;;;;;;;;;;1856543;75;26258;-43
2022/09/11 13:19:11;;;;;;;1.07;1.07;;;;;;;;;;1848675;75;26755;-48
2022/09/11 13:21:44;;;;;;;1.12;1.10;;;;;;;;;;1847362;75;26343;-44
2022/09/11 13:24:22;;;;;;;0.90;0.90;;;;;;;;;;1857660;76;26338;-44
2022/09/11 13:26:54;;;;;;;1.17;1.17;;;;;;;;;;1828153;75;26328;-43
2022/09/11 13:29:19;;;;;;;1.20;1.20;;;;;;;;;;1844741;75;26322;-46
2022/09/11 13:31:46;;;;;;;1.10;1.10;;;;;;;;;;1846105;75;26319;-47
2022/09/11 13:34:15;;;;;;;0.90;0.90;;;;;;;;;;1859507;75;26744;-46
2022/09/11 13:36:43;;;;;;;1.02;0.93;;;;;;;;;;1847879;75;26246;-43
2022/09/11 13:39:10;;;;;;;1.00;1.00;;;;;;;;;;1849725;75;26336;-44
2022/09/11 13:41:39;;;;;;;1.00;1.00;;;;;;;;;;1844425;76;26715;-41
2022/09/11 13:44:08;;;;;;;0.90;0.90;;;;;;;;;;1849459;76;26725;-41
2022/09/11 13:46:35;;;;;;;0.88;0.88;;;;;;;;;;1855062;75;26736;-41
2022/09/11 13:49:07;;;;;;;0.90;0.90;;;;;;;;;;1858135;76;26682;-45
2022/09/11 13:51:35;;;;;;;1.20;1.10;;;;;;;;;;1858491;75;26749;-46
2022/09/11 13:54:10;;;;;;;1.00;1.00;;;;;;;;;;1835301;75;26722;-41
2022/09/11 13:56:50;;;;;;;1.55;0.95;;;;;;;;;;1874558;75;26369;-44
2022/09/11 13:59:35;;;;;;;1.05;1.05;;;;;;;;;;1880213;75;26349;-40
2022/09/11 14:02:04;;;;;;;1.00;1.00;;;;;;;;;;1881434;75;26269;-47
2022/09/11 14:04:33;;;;;;;0.90;0.90;;;;;;;;;;1900352;75;26231;-47
2022/09/11 14:07:01;;;;;;;1.00;1.00;;;;;;;;;;1894806;75;26233;-43
2022/09/11 14:09:29;;;;;;;1.00;1.00;;;;;;;;;;1881028;75;26252;-46
2022/09/11 14:11:58;;;;;;;1.20;1.00;;;;;;;;;;1871598;75;26247;-45
2022/09/11 14:14:27;;;;;;;0.95;0.90;;;;;;;;;;1897193;75;27292;-45
2022/09/11 14:16:57;;;;;;;1.02;1.02;;;;;;;;;;1887554;75;26302;-44
2022/09/11 14:19:26;;;;;;;0.95;0.95;;;;;;;;;;1902838;75;26301;-45
2022/09/11 14:21:53;;;;;;;1.00;1.00;;;;;;;;;;1890335;75;26239;-43
2022/09/11 14:24:25;;;;;;;1.00;1.00;;;;;;;;;;1898736;75;26710;-41
2022/09/11 14:26:56;;;;;;;0.90;0.90;;;;;;;;;;1886847;75;26312;-45
2022/09/11 14:29:30;;;;;;;1.00;1.00;;;;;;;;;;1885048;75;26350;-45
2022/09/11 14:31:57;;;;;;;0.85;0.85;;;;;;;;;;1888533;75;26759;-47
2022/09/11 14:34:30;;;;;;;1.00;1.00;;;;;;;;;;1902223;75;26744;-42
2022/09/11 14:36:59;;;;;;;1.05;1.05;;;;;;;;;;1877833;75;26214;-44
2022/09/11 14:39:28;;;;;;;0.98;0.98;;;;;;;;;;1900272;75;26313;-42
2022/09/11 14:41:56;;;;;;;0.90;0.90;;;;;;;;;;1888909;75;26242;-43
2022/09/11 14:44:25;;;;;;;1.00;1.00;;;;;;;;;;1904132;75;26264;-44
2022/09/11 14:46:53;;;;;;;1.00;1.00;;;;;;;;;;1882419;75;26391;-44
2022/09/11 14:49:21;;;;;;;0.90;0.90;;;;;;;;;;1888866;75;26300;-42
2022/09/11 14:51:49;;;;;;;0.98;0.98;;;;;;;;;;1887636;75;26255;-42
2022/09/11 14:54:19;;;;;;;1.10;1.10;;;;;;;;;;1900535;75;26852;-46
2022/09/11 14:56:47;;;;;;;0.90;0.90;;;;;;;;;;1849762;76;26285;-42
2022/09/11 14:59:15;;;;;;;1.20;1.20;;;;;;;;;;1840214;77;26758;-43